DLH110 EDDN-EDDM
Flight info
| Callsign | DLH110 |
|---|---|
| Flight time | N/A |
| Altitude | 14000 |
| Route | BOLSI1G/28 BOLSI Y167 AKANU/N0348F130 L603 RENLO T466 ROKIL ROKIL1A |
| Aircraft | A21N/M-SDE2E3FGHIRWXY/LB1 |
Departure
| Time | 2026-05-06 15:02 |
|---|---|
| Airport | Nuremberg Airport (EDDN) |
Arrival
| Time | N/A |
|---|---|
| Airport | Munich Airport (EDDM) |
| Time | Latitude | Longitude | Altitude | Speed | Heading |
|---|---|---|---|---|---|
| 2026-05-06 14:48 | 49.49518 | 11.07791 | 1029 ft | 0 kts | 188° |
| 2026-05-06 14:55 | 49.49519 | 11.07792 | 1031 ft | 2 kts | 188° |
| 2026-05-06 14:55 | 49.49535 | 11.07795 | 1029 ft | 2 kts | 188° |
| 2026-05-06 14:55 | 49.49551 | 11.07799 | 1032 ft | 2 kts | 188° |
| 2026-05-06 14:55 | 49.49566 | 11.07808 | 1033 ft | 2 kts | 236° |
| 2026-05-06 14:56 | 49.49570 | 11.07827 | 1032 ft | 0 kts | 279° |
| 2026-05-06 14:57 | 49.49574 | 11.07803 | 1033 ft | 7 kts | 282° |
| 2026-05-06 14:57 | 49.49607 | 11.07764 | 1033 ft | 8 kts | 359° |
| 2026-05-06 14:57 | 49.49675 | 11.07744 | 1035 ft | 12 kts | 315° |
| 2026-05-06 14:58 | 49.49697 | 11.07606 | 1035 ft | 16 kts | 281° |
| 2026-05-06 14:58 | 49.49716 | 11.07427 | 1030 ft | 15 kts | 278° |
| 2026-05-06 14:58 | 49.49733 | 11.07248 | 1026 ft | 18 kts | 279° |
| 2026-05-06 14:58 | 49.49755 | 11.07024 | 1025 ft | 22 kts | 279° |
| 2026-05-06 14:59 | 49.49773 | 11.06830 | 1022 ft | 20 kts | 278° |
| 2026-05-06 14:59 | 49.49797 | 11.06599 | 1020 ft | 19 kts | 279° |
| 2026-05-06 14:59 | 49.49817 | 11.06385 | 1023 ft | 21 kts | 278° |
| 2026-05-06 14:59 | 49.49841 | 11.06138 | 1023 ft | 24 kts | 279° |
| 2026-05-06 15:00 | 49.49902 | 11.05974 | 1022 ft | 17 kts | 333° |
| 2026-05-06 15:00 | 49.50011 | 11.05942 | 1021 ft | 13 kts | 10° |
| 2026-05-06 15:00 | 49.50045 | 11.06020 | 1022 ft | 4 kts | 96° |
| 2026-05-06 15:00 | 49.50045 | 11.06021 | 1022 ft | 0 kts | 96° |
| 2026-05-06 15:01 | 49.50045 | 11.06023 | 1022 ft | 1 kts | 97° |
| 2026-05-06 15:01 | 49.50035 | 11.06132 | 1024 ft | 35 kts | 98° |
| 2026-05-06 15:01 | 49.49966 | 11.06838 | 1021 ft | 99 kts | 98° |
| 2026-05-06 15:01 | 49.49832 | 11.08229 | 1032 ft | 163 kts | 98° |
| 2026-05-06 15:02 | 49.49637 | 11.10025 | 1548 ft | 170 kts | 99° |
| 2026-05-06 15:02 | 49.49446 | 11.11840 | 2281 ft | 176 kts | 100° |
| 2026-05-06 15:02 | 49.49249 | 11.13732 | 2928 ft | 182 kts | 99° |
| 2026-05-06 15:02 | 49.49045 | 11.15777 | 3272 ft | 204 kts | 98° |
| 2026-05-06 15:03 | 49.48848 | 11.18075 | 3495 ft | 232 kts | 99° |
| 2026-05-06 15:03 | 49.48615 | 11.20695 | 3687 ft | 261 kts | 101° |
| 2026-05-06 15:03 | 49.48009 | 11.23418 | 4060 ft | 280 kts | 124° |
| 2026-05-06 15:03 | 49.46604 | 11.25470 | 4743 ft | 279 kts | 155° |
| 2026-05-06 15:04 | 49.44774 | 11.26026 | 5722 ft | 272 kts | 184° |
| 2026-05-06 15:04 | 49.42946 | 11.25584 | 6511 ft | 264 kts | 192° |
| 2026-05-06 15:04 | 49.41135 | 11.25017 | 6897 ft | 267 kts | 190° |
| 2026-05-06 15:04 | 49.39296 | 11.24550 | 6987 ft | 269 kts | 188° |
| 2026-05-06 15:05 | 49.37440 | 11.24185 | 6993 ft | 269 kts | 187° |
| 2026-05-06 15:05 | 49.35577 | 11.23887 | 6992 ft | 270 kts | 186° |
| 2026-05-06 15:05 | 49.33721 | 11.23477 | 6984 ft | 269 kts | 195° |
| 2026-05-06 15:05 | 49.32028 | 11.22306 | 6988 ft | 268 kts | 216° |
| 2026-05-06 15:06 | 49.30900 | 11.20555 | 6987 ft | 269 kts | 236° |
| 2026-05-06 15:06 | 49.30134 | 11.17943 | 6987 ft | 271 kts | 252° |
| 2026-05-06 15:07 | 49.28331 | 11.06802 | 8739 ft | 272 kts | 253° |
| 2026-05-06 15:07 | 49.27876 | 11.03997 | 9610 ft | 272 kts | 253° |
| 2026-05-06 15:07 | 49.27413 | 11.01179 | 10308 ft | 277 kts | 253° |
| 2026-05-06 15:08 | 49.26923 | 10.98233 | 10663 ft | 295 kts | 253° |
| 2026-05-06 15:08 | 49.26399 | 10.95096 | 10954 ft | 314 kts | 253° |